< < Back
Terminal Aerodrome Forecast


Current Version              Previous Versions:   1  2  3  4  5  6  7  8  9  

Terminal Aerodrome Forecast

028
FTUS42 KFFC 200500
TAFCSG
TAF
KCSG 200538Z 2006/2106 00000KT P6SM SKC
      TEMPO 2009/2013 4SM BR
     FM201600 16003KT P6SM FEW250
     FM201800 23004KT P6SM FEW040 FEW250
     FM210000 00000KT P6SM SCT100=



Latest METAR

110
SAUS70 KWBC 200800
MTRCSG
METAR KCSG 200751Z AUTO 00000KT 10SM CLR 11/09 A3009 RMK AO2 SLP186
T01110094


USA.gov is the U.S. government's official web portal to all federal, state and local government web resources and services.